createdAt,value
2017-11-08T00:00:50.987Z,40.70
2017-11-08T00:03:17.122Z,40.47
2017-11-08T00:05:43.206Z,40.73
2017-11-08T00:08:09.334Z,38.20
2017-11-08T00:10:35.426Z,39.63
2017-11-08T00:13:01.523Z,37.83
2017-11-08T00:15:27.635Z,38.23
2017-11-08T00:17:53.705Z,39.60
2017-11-08T00:20:19.795Z,38.53
2017-11-08T00:22:45.851Z,36.30
2017-11-08T00:25:12.251Z,36.80
2017-11-08T00:27:38.394Z,40.73
2017-11-08T00:30:04.616Z,38.43
2017-11-08T00:32:30.742Z,36.67
2017-11-08T00:34:56.838Z,35.90
2017-11-08T00:37:22.921Z,36.60
2017-11-08T00:39:49.042Z,36.17
2017-11-08T00:42:15.162Z,36.60
2017-11-08T00:44:41.226Z,38.50
2017-11-08T00:47:07.385Z,39.80
2017-11-08T00:49:34.332Z,39.37
2017-11-08T00:52:00.406Z,42.20
2017-11-08T00:54:26.913Z,37.77
2017-11-08T00:56:55.966Z,38.40
2017-11-08T00:59:22.070Z,39.50
2017-11-08T01:01:48.167Z,39.93
2017-11-08T01:04:14.246Z,37.33
2017-11-08T01:06:40.206Z,37.90
2017-11-08T01:09:06.450Z,40.03
2017-11-08T01:11:32.586Z,39.40
2017-11-08T01:13:58.758Z,40.60
2017-11-08T01:16:24.842Z,41.53
2017-11-08T01:18:50.987Z,40.27
2017-11-08T01:21:17.097Z,39.13
2017-11-08T01:23:43.186Z,38.43
2017-11-08T01:26:09.323Z,38.83
2017-11-08T01:28:35.479Z,36.37
2017-11-08T01:31:01.558Z,38.70
2017-11-08T01:33:27.654Z,38.10
2017-11-08T01:35:53.751Z,40.13
2017-11-08T01:38:19.801Z,40.30
2017-11-08T01:40:48.043Z,37.47
2017-11-08T01:43:14.113Z,37.77
2017-11-08T01:45:41.119Z,38.30
2017-11-08T01:48:08.435Z,39.57
2017-11-08T01:50:34.530Z,37.73
2017-11-08T01:53:00.645Z,38.27
2017-11-08T01:55:26.720Z,38.77
2017-11-08T01:57:52.773Z,37.63
2017-11-08T02:00:18.799Z,38.97
2017-11-08T02:02:44.894Z,40.97
2017-11-08T02:05:11.022Z,38.37
2017-11-08T02:07:37.163Z,38.37
2017-11-08T02:10:03.339Z,37.77
2017-11-08T02:12:29.460Z,37.67
2017-11-08T02:14:55.562Z,37.83
2017-11-08T02:17:21.663Z,39.50
2017-11-08T02:19:47.731Z,37.77
2017-11-08T02:22:13.834Z,38.90
2017-11-08T02:24:39.862Z,39.57
2017-11-08T02:27:05.995Z,40.60
2017-11-08T02:29:32.034Z,35.17
2017-11-08T02:31:58.071Z,39.80
2017-11-08T02:34:24.135Z,39.10
2017-11-08T02:36:50.174Z,38.80
2017-11-08T02:39:16.281Z,37.97
2017-11-08T02:41:42.373Z,40.90
2017-11-08T02:44:08.439Z,42.00
2017-11-08T02:46:34.521Z,37.43
2017-11-08T02:49:00.576Z,36.20
2017-11-08T02:51:26.697Z,39.40
2017-11-08T02:53:52.775Z,38.47
2017-11-08T02:56:18.860Z,40.27
2017-11-08T02:58:44.962Z,35.93
2017-11-08T03:01:11.075Z,38.83
2017-11-08T03:03:43.218Z,38.93
2017-11-08T03:06:11.082Z,38.47
2017-11-08T03:08:37.166Z,38.83
2017-11-08T03:11:03.314Z,41.70
2017-11-08T03:13:29.391Z,37.97
2017-11-08T03:15:55.482Z,40.33
2017-11-08T03:18:21.530Z,42.23
2017-11-08T03:20:47.625Z,39.03
2017-11-08T03:23:13.722Z,40.57
2017-11-08T03:25:39.818Z,41.90
2017-11-08T03:28:05.896Z,39.90
2017-11-08T03:30:31.988Z,41.33
2017-11-08T03:32:58.119Z,40.90
2017-11-08T03:35:24.166Z,43.17
2017-11-08T03:37:50.279Z,44.60
2017-11-08T03:40:16.489Z,40.80
2017-11-08T03:42:42.551Z,43.47
2017-11-08T03:45:08.599Z,44.23
2017-11-08T03:47:34.672Z,42.80
2017-11-08T03:50:00.818Z,44.17
2017-11-08T03:52:26.852Z,43.87
2017-11-08T03:54:52.983Z,42.47
2017-11-08T03:57:19.098Z,40.10
2017-11-08T03:59:45.078Z,44.47
2017-11-08T04:02:11.157Z,43.17
2017-11-08T04:04:37.245Z,42.10
2017-11-08T04:07:03.323Z,40.30
2017-11-08T04:09:29.443Z,41.17
2017-11-08T04:11:55.519Z,40.50
2017-11-08T04:14:22.198Z,41.97
2017-11-08T04:16:48.718Z,37.67
2017-11-08T04:19:14.786Z,41.23
2017-11-08T04:21:40.819Z,41.37
2017-11-08T04:24:06.943Z,39.73
2017-11-08T04:26:33.044Z,41.47
2017-11-08T04:28:59.170Z,40.80
2017-11-08T04:31:25.266Z,40.90
2017-11-08T04:33:51.456Z,41.50
2017-11-08T04:36:17.571Z,39.00
2017-11-08T04:38:43.681Z,40.43
2017-11-08T04:41:10.030Z,38.93
2017-11-08T04:43:36.062Z,37.23
2017-11-08T04:46:02.107Z,42.63
2017-11-08T04:48:30.259Z,40.77
2017-11-08T04:50:56.343Z,42.40
2017-11-08T04:53:22.686Z,40.10
2017-11-08T04:55:48.813Z,40.37
2017-11-08T04:58:14.927Z,43.10
2017-11-08T05:00:41.071Z,41.63
2017-11-08T05:03:07.292Z,42.07
2017-11-08T05:05:33.399Z,40.57
2017-11-08T05:07:59.557Z,45.00
2017-11-08T05:10:25.618Z,40.57
2017-11-08T05:12:51.701Z,42.50
2017-11-08T05:15:17.845Z,39.07
2017-11-08T05:17:43.921Z,40.13
2017-11-08T05:20:10.205Z,42.13
2017-11-08T05:22:36.744Z,43.83
2017-11-08T05:25:02.790Z,42.83
2017-11-08T05:27:28.868Z,42.83
2017-11-08T05:29:54.919Z,42.60
2017-11-08T05:32:20.995Z,38.13
2017-11-08T05:34:47.075Z,40.23
2017-11-08T05:37:13.370Z,38.93
2017-11-08T05:39:39.438Z,39.30
2017-11-08T05:42:05.530Z,42.80
2017-11-08T05:44:31.743Z,38.93
2017-11-08T05:46:57.839Z,37.93
2017-11-08T05:49:23.972Z,40.97
2017-11-08T05:51:50.457Z,44.70
2017-11-08T05:54:16.551Z,44.00
2017-11-08T05:56:42.659Z,41.63
2017-11-08T05:59:08.770Z,42.63
2017-11-08T06:01:34.847Z,41.00
2017-11-08T06:04:01.040Z,40.43
2017-11-08T06:06:27.116Z,44.83
2017-11-08T06:08:53.149Z,45.53
2017-11-08T06:11:19.207Z,40.60
2017-11-08T06:13:45.287Z,42.10
2017-11-08T06:16:11.723Z,43.27
2017-11-08T06:18:37.821Z,42.33
2017-11-08T06:21:03.906Z,42.03
2017-11-08T06:23:30.011Z,40.90
2017-11-08T06:25:56.124Z,38.83
2017-11-08T06:28:22.565Z,40.60
2017-11-08T06:30:48.675Z,40.83
2017-11-08T06:33:14.755Z,40.80
2017-11-08T06:35:40.787Z,44.20
2017-11-08T06:38:07.742Z,39.87
2017-11-08T06:40:34.235Z,40.07
2017-11-08T06:43:00.254Z,40.83
2017-11-08T06:45:26.350Z,41.70
2017-11-08T06:47:52.447Z,38.80
2017-11-08T06:50:18.563Z,39.63
2017-11-08T06:52:45.006Z,37.87
2017-11-08T06:55:11.111Z,42.07
2017-11-08T06:57:37.195Z,38.60
2017-11-08T07:00:03.208Z,42.60
2017-11-08T07:02:29.359Z,40.07
2017-11-08T07:04:55.814Z,38.97
2017-11-08T07:07:22.232Z,41.30
2017-11-08T07:09:48.317Z,43.47
2017-11-08T07:12:14.823Z,42.00
2017-11-08T07:14:40.914Z,38.43
2017-11-08T07:17:08.779Z,38.47
2017-11-08T07:19:34.955Z,41.50
2017-11-08T07:22:01.021Z,40.97
2017-11-08T07:24:27.499Z,37.63
2017-11-08T07:26:53.593Z,41.07
2017-11-08T07:29:19.678Z,37.13
2017-11-08T07:31:45.691Z,38.60
2017-11-08T07:34:11.758Z,40.27
2017-11-08T07:36:38.242Z,37.43
2017-11-08T07:39:04.346Z,36.53
2017-11-08T07:41:30.430Z,40.10
2017-11-08T07:43:56.506Z,37.87
2017-11-08T07:46:22.657Z,36.53
2017-11-08T07:48:49.066Z,39.23
2017-11-08T07:51:15.099Z,39.60
2017-11-08T07:53:41.185Z,38.00
2017-11-08T07:56:07.654Z,38.47
2017-11-08T07:58:35.738Z,41.50
2017-11-08T08:01:01.798Z,38.63
2017-11-08T08:03:28.301Z,41.87
2017-11-08T08:05:54.398Z,41.13
2017-11-08T08:08:20.546Z,42.43
2017-11-08T08:10:46.979Z,38.47
2017-11-08T08:13:13.054Z,39.80
2017-11-08T08:15:39.116Z,36.53
2017-11-08T08:18:05.572Z,39.20
2017-11-08T08:20:31.615Z,39.10
2017-11-08T08:22:57.668Z,38.47
2017-11-08T08:25:23.774Z,39.63
2017-11-08T08:27:49.889Z,41.10
2017-11-08T08:30:16.306Z,40.67
2017-11-08T08:32:42.391Z,38.20
2017-11-08T08:35:08.477Z,41.00
2017-11-08T08:37:35.002Z,37.87
2017-11-08T08:40:01.094Z,36.40
2017-11-08T08:42:27.139Z,37.90
2017-11-08T08:44:53.290Z,41.93
2017-11-08T08:47:19.391Z,44.10
2017-11-08T08:49:45.767Z,41.27
2017-11-08T08:52:11.778Z,38.87
2017-11-08T08:54:37.815Z,42.93
2017-11-08T08:57:04.330Z,44.90
2017-11-08T08:59:30.427Z,40.80
2017-11-08T09:01:56.499Z,35.07
2017-11-08T09:04:22.602Z,36.77
2017-11-08T09:06:48.670Z,39.03
2017-11-08T09:09:15.174Z,37.10
2017-11-08T09:11:41.245Z,37.63
2017-11-08T09:14:07.362Z,38.50
2017-11-08T09:16:33.452Z,36.70
2017-11-08T09:18:59.470Z,35.93
2017-11-08T09:21:25.908Z,34.47
2017-11-08T09:23:51.954Z,40.23
2017-11-08T09:26:20.983Z,35.53
2017-11-08T09:28:47.489Z,35.23
2017-11-08T09:31:19.648Z,35.37
2017-11-08T09:33:45.770Z,38.67
2017-11-08T09:36:14.774Z,35.77
2017-11-08T09:38:40.867Z,39.57
2017-11-08T09:41:06.984Z,37.20
2017-11-08T09:43:33.119Z,40.87
2017-11-08T09:46:00.513Z,35.30
2017-11-08T09:48:26.618Z,38.00
2017-11-08T09:50:52.666Z,38.50
2017-11-08T09:53:18.762Z,38.43
2017-11-08T09:55:51.947Z,39.57
2017-11-08T09:58:18.441Z,40.33
2017-11-08T10:00:51.001Z,36.10
2017-11-08T10:03:19.362Z,37.37
2017-11-08T10:05:45.395Z,38.47
2017-11-08T10:08:11.472Z,40.37
2017-11-08T10:10:38.658Z,36.53
2017-11-08T10:13:09.760Z,38.43
2017-11-08T10:15:36.243Z,35.73
2017-11-08T10:18:02.359Z,36.53
2017-11-08T10:20:28.512Z,38.20
2017-11-08T10:23:00.499Z,40.33
2017-11-08T10:25:26.562Z,38.17
2017-11-08T10:27:56.003Z,35.80
2017-11-08T10:30:22.089Z,37.97
2017-11-08T10:32:48.198Z,36.73
2017-11-08T10:35:14.609Z,37.00
2017-11-08T10:37:40.722Z,36.30
2017-11-08T10:40:06.831Z,32.87
2017-11-08T10:42:32.962Z,36.37
2017-11-08T10:44:59.056Z,34.10
2017-11-08T10:47:25.527Z,35.43
2017-11-08T10:49:54.632Z,35.60
2017-11-08T10:52:20.800Z,33.90
2017-11-08T10:54:47.217Z,32.07
2017-11-08T10:57:13.364Z,32.03
2017-11-08T10:59:45.581Z,33.03
2017-11-08T11:02:11.975Z,34.27
2017-11-08T11:04:38.028Z,33.37
2017-11-08T11:07:04.122Z,32.47
2017-11-08T11:09:30.603Z,31.40
2017-11-08T11:11:56.657Z,31.27
2017-11-08T11:14:22.767Z,32.80
2017-11-08T11:16:49.276Z,33.23
2017-11-08T11:19:20.163Z,30.83
2017-11-08T11:21:48.002Z,35.50
2017-11-08T11:24:14.382Z,31.63
2017-11-08T11:26:41.391Z,30.50
2017-11-08T11:29:07.455Z,34.13
2017-11-08T11:31:33.957Z,31.97
2017-11-08T11:34:00.009Z,31.60
2017-11-08T11:36:26.039Z,32.50
2017-11-08T11:38:54.366Z,33.50
2017-11-08T11:41:22.410Z,31.17
2017-11-08T11:43:48.448Z,31.70
2017-11-08T11:46:14.526Z,33.70
2017-11-08T11:48:47.271Z,30.83
2017-11-08T11:51:13.816Z,34.80
2017-11-08T11:53:39.856Z,31.30
2017-11-08T11:56:05.889Z,32.20
2017-11-08T11:58:31.955Z,35.87
2017-11-08T12:00:58.059Z,32.37
2017-11-08T12:03:24.457Z,32.93
2017-11-08T12:05:50.531Z,31.53
2017-11-08T12:08:16.610Z,34.00
2017-11-08T12:10:42.696Z,33.47
2017-11-08T12:13:08.759Z,34.30
2017-11-08T12:15:35.320Z,32.23
2017-11-08T12:18:01.387Z,34.57
2017-11-08T12:20:28.512Z,33.40
2017-11-08T12:22:54.630Z,31.17
2017-11-08T12:25:20.703Z,30.47
2017-11-08T12:27:46.803Z,34.10
2017-11-08T12:30:12.960Z,33.30
2017-11-08T12:32:39.424Z,33.27
2017-11-08T12:35:05.740Z,34.37
2017-11-08T12:37:31.819Z,37.70
2017-11-08T12:39:57.982Z,33.53
2017-11-08T12:42:24.024Z,32.43
2017-11-08T12:44:56.428Z,31.47
2017-11-08T12:47:22.465Z,31.70
2017-11-08T12:49:48.595Z,33.40
2017-11-08T12:52:14.715Z,34.43
2017-11-08T12:54:40.779Z,31.70
2017-11-08T12:57:06.883Z,34.43
2017-11-08T12:59:33.380Z,34.63
2017-11-08T13:01:59.511Z,33.53
2017-11-08T13:04:25.540Z,31.93
2017-11-08T13:06:51.988Z,30.40
2017-11-08T13:09:18.022Z,32.40
2017-11-08T13:11:44.072Z,30.93
2017-11-08T13:14:10.584Z,31.53
2017-11-08T13:16:36.674Z,29.50
2017-11-08T13:19:02.740Z,29.90
2017-11-08T13:21:29.198Z,31.30
2017-11-08T13:23:55.409Z,32.37
2017-11-08T13:26:21.466Z,35.43
2017-11-08T13:28:48.048Z,34.83
2017-11-08T13:31:14.160Z,32.77
2017-11-08T13:33:40.171Z,31.47
2017-11-08T13:36:06.535Z,30.60
2017-11-08T13:38:32.536Z,31.60
2017-11-08T13:40:58.598Z,29.77
2017-11-08T13:43:24.743Z,33.07
2017-11-08T13:45:50.863Z,32.00
2017-11-08T13:48:17.372Z,31.27
2017-11-08T13:50:43.459Z,33.13
2017-11-08T13:53:09.628Z,32.30
2017-11-08T13:55:36.176Z,30.67
2017-11-08T13:58:02.301Z,30.27
2017-11-08T14:00:28.328Z,36.03
2017-11-08T14:02:54.866Z,31.93
2017-11-08T14:05:20.995Z,30.97
2017-11-08T14:07:47.120Z,33.17
2017-11-08T14:10:13.547Z,31.10
2017-11-08T14:12:39.637Z,31.97
2017-11-08T14:15:05.719Z,32.53
2017-11-08T14:17:32.107Z,32.10
2017-11-08T14:19:58.198Z,32.93
2017-11-08T14:22:24.279Z,31.67
2017-11-08T14:24:50.387Z,32.30
2017-11-08T14:27:16.458Z,32.20
2017-11-08T14:29:42.566Z,31.73
2017-11-08T14:32:11.700Z,32.30
2017-11-08T14:34:37.728Z,31.90
2017-11-08T14:37:03.812Z,31.70
2017-11-08T14:39:29.919Z,34.60
2017-11-08T14:41:57.797Z,32.17
2017-11-08T14:44:23.868Z,30.27
2017-11-08T14:46:49.993Z,30.17
2017-11-08T14:49:16.080Z,28.23
2017-11-08T14:51:42.147Z,27.57
2017-11-08T14:54:08.649Z,26.73
2017-11-08T14:56:34.727Z,26.77
2017-11-08T14:59:00.810Z,33.80
2017-11-08T15:01:27.197Z,31.73
2017-11-08T15:03:53.266Z,26.20
2017-11-08T15:06:19.391Z,26.13
2017-11-08T15:08:45.846Z,26.60
2017-11-08T15:11:14.818Z,25.20
2017-11-08T15:13:40.707Z,22.27
2017-11-08T15:16:07.192Z,25.87
2017-11-08T15:18:33.287Z,25.40
2017-11-08T15:20:59.325Z,25.20
2017-11-08T15:23:28.403Z,27.17
2017-11-08T15:25:54.467Z,25.80
2017-11-08T15:28:20.598Z,24.83
2017-11-08T15:36:27.859Z,25.57
2017-11-08T15:38:53.942Z,27.10
2017-11-08T15:41:19.992Z,28.43
2017-11-08T15:43:46.093Z,29.03
2017-11-08T15:46:13.119Z,24.53
2017-11-08T15:48:39.588Z,23.63
2017-11-08T15:51:05.663Z,24.07
2017-11-08T15:53:31.748Z,22.70
2017-11-08T15:55:57.863Z,25.50
2017-11-08T15:58:23.948Z,25.27
2017-11-08T16:00:50.451Z,26.37
2017-11-08T16:03:16.578Z,24.77
2017-11-08T16:05:42.675Z,24.80
2017-11-08T16:08:08.772Z,25.80
2017-11-08T16:10:34.852Z,24.27
2017-11-08T16:13:01.388Z,22.87
2017-11-08T16:15:27.415Z,25.40
2017-11-08T16:17:53.587Z,25.20
2017-11-08T16:20:19.703Z,23.80
2017-11-08T16:22:45.813Z,23.20
2017-11-08T16:25:12.333Z,24.20
2017-11-08T16:27:38.423Z,24.23
2017-11-08T16:30:04.539Z,22.37
2017-11-08T16:32:30.644Z,26.80
2017-11-08T16:34:56.762Z,26.00
2017-11-08T16:37:23.288Z,24.70
2017-11-08T16:39:49.359Z,27.67
2017-11-08T16:42:15.448Z,26.27
2017-11-08T16:44:41.608Z,27.57
2017-11-08T16:47:07.806Z,27.70
2017-11-08T16:49:34.316Z,25.93
2017-11-08T16:52:00.472Z,28.37
2017-11-08T16:54:26.574Z,26.20
2017-11-08T16:56:52.683Z,28.40
2017-11-08T16:59:18.769Z,30.13
2017-11-08T17:01:45.395Z,26.90
2017-11-08T17:04:11.562Z,27.20
2017-11-08T17:06:37.714Z,27.83
2017-11-08T17:09:03.795Z,28.27
2017-11-08T17:11:29.871Z,29.37
2017-11-08T17:13:56.293Z,28.47
2017-11-08T17:16:22.368Z,32.23
2017-11-08T17:18:48.527Z,34.93
2017-11-08T17:21:14.904Z,34.17
2017-11-08T17:23:41.043Z,35.50
2017-11-08T17:26:07.167Z,35.17
2017-11-08T17:28:33.715Z,33.73
2017-11-08T17:30:59.779Z,33.67
2017-11-08T17:33:25.883Z,33.40
2017-11-08T17:35:52.303Z,37.50
2017-11-08T17:38:18.371Z,37.90
2017-11-08T17:40:44.505Z,41.30
2017-11-08T17:43:10.649Z,37.87
2017-11-08T17:45:36.800Z,100.30
2017-11-08T17:48:03.209Z,62.40
2017-11-08T17:50:29.275Z,54.23
2017-11-08T17:52:55.413Z,41.13
2017-11-08T17:55:21.924Z,39.60
2017-11-08T17:57:47.986Z,33.30
2017-11-08T18:00:14.139Z,34.57
2017-11-08T18:02:40.715Z,36.70
2017-11-08T18:05:06.852Z,35.30
2017-11-08T18:07:32.948Z,33.60
2017-11-08T18:09:59.412Z,36.13
2017-11-08T18:12:25.517Z,34.27
2017-11-08T18:14:51.657Z,35.67
2017-11-08T18:17:18.202Z,35.00
2017-11-08T18:19:44.326Z,35.00
2017-11-08T18:22:10.434Z,32.37
2017-11-08T18:24:36.915Z,32.40
2017-11-08T18:27:03.064Z,32.67
2017-11-08T18:29:29.185Z,33.70
2017-11-08T18:31:55.608Z,37.90
2017-11-08T18:34:21.704Z,35.00
2017-11-08T18:36:47.874Z,34.43
2017-11-08T18:39:14.359Z,33.97
2017-11-08T18:41:40.446Z,35.30
2017-11-08T18:44:06.582Z,34.57
2017-11-08T18:46:32.709Z,34.30
2017-11-08T18:48:58.834Z,32.10
2017-11-08T18:51:25.370Z,33.63
2017-11-08T18:53:51.488Z,31.73
2017-11-08T18:56:17.714Z,31.43
2017-11-08T18:58:43.873Z,32.63
2017-11-08T19:01:10.048Z,32.40
2017-11-08T19:03:36.598Z,33.40
2017-11-08T19:06:02.743Z,28.97
2017-11-08T19:08:28.903Z,33.60
2017-11-08T19:10:55.422Z,33.10
2017-11-08T19:13:21.496Z,30.73
2017-11-08T19:15:47.668Z,32.90
2017-11-08T19:18:14.284Z,29.97
2017-11-08T19:20:40.457Z,30.77
2017-11-08T19:23:06.664Z,31.20
2017-11-08T19:25:33.207Z,28.00
2017-11-08T19:27:59.438Z,29.00
2017-11-08T19:30:25.730Z,28.27
2017-11-08T19:32:52.259Z,27.13
2017-11-08T19:35:18.517Z,26.97
2017-11-08T19:37:44.815Z,30.40
2017-11-08T19:40:11.424Z,27.23
2017-11-08T19:42:37.724Z,28.73
2017-11-08T19:45:04.007Z,26.80
2017-11-08T19:47:30.608Z,27.87
2017-11-08T19:49:57.334Z,27.67
2017-11-08T19:52:24.397Z,26.73
2017-11-08T19:54:51.041Z,26.73
2017-11-08T19:57:17.999Z,25.73
2017-11-08T19:59:44.286Z,27.40
2017-11-08T20:02:11.004Z,26.93
2017-11-08T20:04:37.288Z,25.67
2017-11-08T20:07:03.555Z,26.33
2017-11-08T20:09:30.264Z,30.20
2017-11-08T20:11:56.561Z,28.77
2017-11-08T20:14:22.898Z,26.63
2017-11-08T20:16:49.573Z,25.80
2017-11-08T20:19:15.913Z,26.00
2017-11-08T20:21:42.149Z,26.37
2017-11-08T20:24:08.782Z,26.87
2017-11-08T20:26:35.123Z,28.00
2017-11-08T20:29:01.427Z,25.07
2017-11-08T20:31:28.097Z,25.80
2017-11-08T20:33:54.389Z,27.97
2017-11-08T20:36:20.661Z,29.13
2017-11-08T20:38:47.250Z,30.93
2017-11-08T20:41:13.539Z,32.60
2017-11-08T20:43:39.839Z,31.50
2017-11-08T20:46:06.553Z,33.40
2017-11-08T20:48:32.777Z,32.43
2017-11-08T20:50:58.913Z,32.37
2017-11-08T20:53:25.582Z,35.13
2017-11-08T20:55:51.806Z,34.80
2017-11-08T20:58:18.008Z,33.97
2017-11-08T21:00:44.231Z,30.57
2017-11-08T21:03:11.270Z,29.20
2017-11-08T21:05:37.823Z,31.17
2017-11-08T21:08:03.962Z,31.13
2017-11-08T21:10:30.168Z,29.63
2017-11-08T21:12:56.312Z,26.03
2017-11-08T21:15:22.455Z,27.20
2017-11-08T21:17:48.979Z,28.50
2017-11-08T21:20:15.107Z,30.60
2017-11-08T21:22:41.217Z,29.10
2017-11-08T21:25:07.653Z,30.90
2017-11-08T21:27:33.764Z,30.33
2017-11-08T21:29:59.956Z,29.90
2017-11-08T21:32:26.448Z,29.00
2017-11-08T21:34:52.560Z,30.40
2017-11-08T21:37:18.651Z,29.27
2017-11-08T21:39:45.133Z,30.20
2017-11-08T21:42:11.240Z,29.20
2017-11-08T21:44:37.449Z,27.73
2017-11-08T21:47:03.552Z,28.70
2017-11-08T21:49:29.656Z,29.67
2017-11-08T21:51:56.161Z,32.53
2017-11-08T21:54:22.399Z,28.40
2017-11-08T21:56:48.445Z,29.83
2017-11-08T21:59:14.955Z,27.93
2017-11-08T22:01:41.050Z,28.30
2017-11-08T22:04:07.075Z,27.70
2017-11-08T22:06:33.399Z,29.20
2017-11-08T22:08:59.469Z,29.87
2017-11-08T22:11:25.649Z,28.60
2017-11-08T22:13:51.756Z,30.80
2017-11-08T22:16:17.836Z,28.50
2017-11-08T22:18:44.280Z,27.97
2017-11-08T22:21:10.365Z,32.53
2017-11-08T22:23:36.425Z,27.70
2017-11-08T22:26:02.884Z,29.57
2017-11-08T22:28:28.965Z,28.90
2017-11-08T22:30:55.048Z,27.43
2017-11-08T22:33:21.152Z,28.80
2017-11-08T22:35:47.246Z,25.63
2017-11-08T22:38:13.684Z,27.60
2017-11-08T22:40:39.846Z,27.17
2017-11-08T22:43:05.908Z,25.97
2017-11-08T22:45:32.057Z,25.57
2017-11-08T22:47:58.097Z,28.40
2017-11-08T22:50:24.547Z,26.87
2017-11-08T22:52:50.619Z,26.47
2017-11-08T22:55:16.680Z,28.17
2017-11-08T22:57:43.192Z,29.63
2017-11-08T23:00:09.316Z,26.50
2017-11-08T23:02:35.397Z,26.90
2017-11-08T23:05:01.503Z,28.90
2017-11-08T23:07:27.608Z,27.13
2017-11-08T23:09:54.015Z,26.07
2017-11-08T23:12:20.100Z,25.37
2017-11-08T23:14:46.194Z,27.27
2017-11-08T23:17:12.313Z,27.30
2017-11-08T23:19:38.420Z,27.83
2017-11-08T23:22:04.880Z,25.50
2017-11-08T23:24:30.988Z,28.27
2017-11-08T23:26:57.126Z,29.00
2017-11-08T23:29:23.239Z,26.53
2017-11-08T23:31:49.338Z,26.47
2017-11-08T23:34:15.797Z,27.73
2017-11-08T23:36:41.902Z,25.23
2017-11-08T23:39:07.963Z,24.70
2017-11-08T23:41:34.332Z,25.40
2017-11-08T23:44:00.392Z,25.50
2017-11-08T23:46:26.503Z,26.17
2017-11-08T23:48:52.628Z,27.63
2017-11-08T23:51:18.675Z,25.60
2017-11-08T23:53:45.111Z,26.13
2017-11-08T23:56:11.230Z,27.77
2017-11-08T23:58:37.329Z,25.60
